Time;durP1;ratioP1;P1;durP2;ratioP2;P2;SDS_P1;SDS_P2;PMS_P1;PMS_P2;Temp;Humidity;BMP_temperature;BMP_pressure;BME280_temperature;BME280_humidity;BME280_pressure;Samples;Min_cycle;Max_cycle;Signal;HPM_P1;HPM_P2
2021/10/10 00:02:23;;;;;;;0.40;0.30;;;;;;;5.00;90.37;102645.25;5072720;28;20437;-70
2021/10/10 00:04:50;;;;;;;0.40;0.30;;;;;;;4.96;90.02;102639.50;5072561;28;20452;-70
2021/10/10 00:07:16;;;;;;;0.40;0.30;;;;;;;4.93;89.62;102636.41;5075285;28;20461;-69
2021/10/10 00:09:42;;;;;;;0.40;0.30;;;;;;;4.83;89.61;102644.09;5076148;28;20441;-70
2021/10/10 00:12:10;;;;;;;10.83;9.83;;;;;;;4.84;90.11;102637.69;5076088;28;20506;-70
2021/10/10 00:14:37;;;;;;;0.40;0.30;;;;;;;4.70;90.10;102635.03;5076056;28;20491;-69
2021/10/10 00:17:03;;;;;;;0.40;0.30;;;;;;;4.70;90.28;102636.91;5075628;28;20862;-69
2021/10/10 00:19:30;;;;;;;0.40;0.30;;;;;;;4.63;90.58;102630.72;5075879;28;20489;-69
2021/10/10 00:21:56;;;;;;;0.40;0.30;;;;;;;4.70;91.17;102628.84;5075896;28;20453;-69
2021/10/10 00:24:23;;;;;;;0.40;0.30;;;;;;;4.79;91.66;102630.28;5075827;28;20437;-69
2021/10/10 00:26:49;;;;;;;0.40;0.40;;;;;;;4.70;91.78;102627.00;5075883;28;20488;-69
2021/10/10 00:29:18;;;;;;;0.40;0.30;;;;;;;4.69;92.41;102625.34;5075422;28;20437;-69
2021/10/10 00:31:44;;;;;;;0.50;0.40;;;;;;;4.73;92.23;102621.19;5075812;28;20480;-70
2021/10/10 00:34:11;;;;;;;1.03;1.03;;;;;;;4.77;92.18;102622.41;5075683;28;20456;-70
2021/10/10 00:36:37;;;;;;;0.40;0.30;;;;;;;4.71;92.30;102625.94;5075634;28;20457;-69
2021/10/10 00:39:03;;;;;;;0.40;0.30;;;;;;;4.70;91.77;102620.81;5075626;28;20477;-70
2021/10/10 00:41:30;;;;;;;0.60;0.50;;;;;;;4.68;92.16;102618.31;5075819;28;20442;-69
2021/10/10 00:43:56;;;;;;;0.60;0.60;;;;;;;4.73;91.65;102620.34;5075845;28;20437;-69
2021/10/10 00:46:24;;;;;;;0.40;0.30;;;;;;;4.73;91.78;102618.50;5075390;28;20464;-69
2021/10/10 00:48:51;;;;;;;0.40;0.30;;;;;;;4.67;92.30;102616.66;5075492;28;20809;-70
2021/10/10 00:51:17;;;;;;;0.93;0.93;;;;;;;4.60;92.30;102607.78;5075306;28;20939;-69
2021/10/10 00:53:44;;;;;;;0.40;0.30;;;;;;;4.65;92.27;102618.75;5075332;28;20531;-69
2021/10/10 00:56:11;;;;;;;0.40;0.30;;;;;;;4.60;91.83;102607.78;5074910;28;20978;-69
2021/10/10 00:58:38;;;;;;;0.40;0.30;;;;;;;4.54;91.08;102612.16;5075192;28;20437;-69
2021/10/10 01:01:05;;;;;;;0.40;0.30;;;;;;;4.52;90.19;102610.75;5074907;28;20487;-69
2021/10/10 01:03:33;;;;;;;0.40;0.30;;;;;;;4.41;90.41;102608.69;5075131;28;20452;-70
2021/10/10 01:05:59;;;;;;;0.40;0.30;;;;;;;4.35;91.19;102602.31;5074784;28;21001;-69
2021/10/10 01:08:26;;;;;;;0.90;0.90;;;;;;;4.41;91.01;102590.72;5074978;28;20965;-70
2021/10/10 01:10:52;;;;;;;0.40;0.30;;;;;;;4.47;91.09;102594.41;5075025;28;20434;-69
2021/10/10 01:13:20;;;;;;;0.40;0.30;;;;;;;4.45;91.21;102596.50;5074637;28;20444;-70
2021/10/10 01:15:48;;;;;;;0.40;0.30;;;;;;;4.39;91.21;102602.72;5074814;28;20539;-70
2021/10/10 01:18:21;;;;;;;0.40;0.30;;;;;;;4.22;90.65;102588.91;5074337;28;20445;-69
2021/10/10 01:20:49;;;;;;;0.70;0.30;;;;;;;4.25;90.78;102586.66;5074797;28;20476;-69
2021/10/10 01:23:16;;;;;;;0.40;0.40;;;;;;;4.28;90.31;102585.38;5074429;28;20969;-70
2021/10/10 01:25:43;;;;;;;0.40;0.30;;;;;;;4.28;90.42;102591.56;5074638;28;20461;-69
2021/10/10 01:28:10;;;;;;;0.50;0.40;;;;;;;4.19;90.42;102592.81;5074700;28;20449;-69
2021/10/10 01:30:36;;;;;;;0.40;0.30;;;;;;;4.13;90.08;102580.25;5074528;28;20445;-69
2021/10/10 01:33:06;;;;;;;0.40;0.30;;;;;;;3.99;90.93;102584.81;5074585;28;20441;-69
2021/10/10 01:35:33;;;;;;;0.40;0.30;;;;;;;3.94;90.88;102578.41;5074427;28;20470;-69
2021/10/10 01:38:00;;;;;;;0.40;0.40;;;;;;;3.95;90.92;102578.22;5074455;28;20429;-69
2021/10/10 01:40:27;;;;;;;0.40;0.30;;;;;;;4.04;90.43;102573.47;5074304;28;20486;-69
2021/10/10 01:42:53;;;;;;;3.60;3.30;;;;;;;3.96;91.19;102574.50;5074356;28;20456;-69
2021/10/10 01:45:22;;;;;;;4.43;4.13;;;;;;;3.90;91.59;102571.84;5074153;28;20445;-69
2021/10/10 01:47:49;;;;;;;0.40;0.30;;;;;;;3.83;90.85;102571.00;5073985;28;20970;-69
2021/10/10 01:50:15;;;;;;;0.40;0.30;;;;;;;3.83;90.71;102571.81;5074207;28;20438;-69
2021/10/10 01:52:47;;;;;;;0.40;0.30;;;;;;;3.73;92.22;102572.25;5074140;28;20440;-69
2021/10/10 01:55:15;;;;;;;0.40;0.30;;;;;;;3.67;93.69;102577.59;5073974;28;20856;-69
2021/10/10 01:57:41;;;;;;;0.40;0.30;;;;;;;3.78;92.63;102575.13;5074084;28;20499;-69
2021/10/10 02:00:10;;;;;;;3.33;3.13;;;;;;;3.71;93.35;102565.44;5073894;28;20488;-69
2021/10/10 02:02:37;;;;;;;0.40;0.40;;;;;;;3.79;93.15;102563.38;5073877;28;20969;-69
2021/10/10 02:05:04;;;;;;;0.40;0.30;;;;;;;3.90;92.98;102561.94;5074022;28;20441;-69
2021/10/10 02:07:30;;;;;;;0.40;0.30;;;;;;;3.94;92.84;102560.50;5073504;28;20974;-69
2021/10/10 02:09:57;;;;;;;0.40;0.30;;;;;;;3.90;92.95;102555.75;5073512;28;20791;-69
2021/10/10 02:12:24;;;;;;;0.40;0.30;;;;;;;4.05;92.33;102549.13;5073779;28;20445;-69
2021/10/10 02:14:51;;;;;;;0.40;0.30;;;;;;;4.02;91.88;102549.53;5073615;28;20869;-69
2021/10/10 02:17:19;;;;;;;0.40;0.30;;;;;;;3.93;91.81;102548.09;5073463;28;20473;-69
2021/10/10 02:19:45;;;;;;;0.40;0.30;;;;;;;3.97;92.35;102545.84;5073547;28;21061;-69
2021/10/10 02:22:13;;;;;;;0.40;0.30;;;;;;;3.93;92.20;102541.91;5073650;28;20441;-69
2021/10/10 02:24:39;;;;;;;0.40;0.30;;;;;;;3.93;91.24;102539.22;5073582;28;20433;-69
2021/10/10 02:27:06;;;;;;;0.67;0.67;;;;;;;3.98;91.06;102552.84;5073476;28;20468;-69
2021/10/10 02:29:34;;;;;;;0.40;0.30;;;;;;;3.79;91.05;102549.16;5072733;28;20461;-69
2021/10/10 02:32:00;;;;;;;0.40;0.30;;;;;;;3.77;91.12;102551.22;5073223;28;20436;-69
2021/10/10 02:34:26;;;;;;;0.40;0.40;;;;;;;3.64;89.98;102535.16;5073462;28;20467;-69
2021/10/10 02:36:53;;;;;;;0.40;0.30;;;;;;;3.53;90.16;102533.91;5073040;28;20996;-69
2021/10/10 02:39:19;;;;;;;0.40;0.30;;;;;;;3.51;89.74;102542.16;5073254;28;20534;-69
2021/10/10 02:41:46;;;;;;;0.40;0.30;;;;;;;3.54;89.63;102543.56;5073415;28;20449;-69
2021/10/10 02:44:12;;;;;;;2.20;2.10;;;;;;;3.60;89.45;102548.13;5073284;28;20438;-68
2021/10/10 02:46:40;;;;;;;0.40;0.30;;;;;;;3.57;89.13;102537.81;5073252;28;20457;-69
2021/10/10 02:49:06;;;;;;;0.40;0.30;;;;;;;3.45;89.70;102536.78;5073302;28;20445;-69
2021/10/10 02:51:33;;;;;;;0.40;0.30;;;;;;;3.29;90.96;102529.97;5073241;28;20449;-69
2021/10/10 02:54:00;;;;;;;0.40;0.30;;;;;;;3.31;90.22;102532.44;5073227;28;20442;-68
2021/10/10 02:56:26;;;;;;;0.40;0.30;;;;;;;3.36;90.10;102529.97;5073130;28;20468;-69
2021/10/10 02:58:52;;;;;;;0.50;0.43;;;;;;;3.33;90.00;102533.91;5073223;28;20463;-68
2021/10/10 03:01:19;;;;;;;0.40;0.30;;;;;;;3.27;90.99;102529.34;5073087;28;20485;-67
2021/10/10 03:03:47;;;;;;;0.40;0.30;;;;;;;3.43;90.99;102533.50;5072849;28;20950;-70
2021/10/10 03:06:13;;;;;;;0.40;0.30;;;;;;;3.48;90.47;102531.84;5072737;28;20989;-70
2021/10/10 03:08:39;;;;;;;0.40;0.30;;;;;;;3.52;90.29;102526.91;5073115;28;20444;-71
2021/10/10 03:11:06;;;;;;;0.40;0.30;;;;;;;3.38;92.08;102519.88;5073097;28;20468;-71
2021/10/10 03:13:33;;;;;;;0.70;0.70;;;;;;;3.45;91.45;102526.06;5073020;28;20440;-71
2021/10/10 03:15:59;;;;;;;0.40;0.30;;;;;;;3.46;91.74;102522.38;5072911;28;20484;-70
2021/10/10 03:18:27;;;;;;;0.40;0.30;;;;;;;3.47;92.04;102514.13;5073064;28;20442;-70
2021/10/10 03:20:54;;;;;;;0.40;0.30;;;;;;;3.47;92.00;102518.66;5072848;28;20481;-70
2021/10/10 03:23:21;;;;;;;0.40;0.30;;;;;;;3.40;92.35;102515.13;5072586;28;20451;-70
2021/10/10 03:25:47;;;;;;;0.40;0.30;;;;;;;3.34;92.27;102502.56;5072569;28;20945;-71
2021/10/10 03:28:14;;;;;;;0.40;0.30;;;;;;;3.32;92.30;102509.97;5072914;28;20452;-71
2021/10/10 03:30:40;;;;;;;1.07;1.07;;;;;;;3.42;92.22;102513.09;5072906;28;20441;-70
2021/10/10 03:33:08;;;;;;;2.10;2.00;;;;;;;3.40;91.54;102507.91;5072498;28;20934;-70
2021/10/10 03:35:34;;;;;;;0.53;0.30;;;;;;;3.40;91.29;102501.75;5072504;28;20505;-70
2021/10/10 03:38:02;;;;;;;1.30;1.20;;;;;;;3.26;90.49;102512.44;5072828;28;20445;-71
2021/10/10 03:40:29;;;;;;;0.67;0.67;;;;;;;3.27;90.35;102498.03;5072909;28;20477;-71
2021/10/10 03:42:55;;;;;;;0.83;0.83;;;;;;;3.24;89.71;102497.63;5076436;28;20437;-70
2021/10/10 03:45:22;;;;;;;1.90;1.50;;;;;;;3.28;89.41;102493.53;5076521;28;20441;-71
2021/10/10 03:47:48;;;;;;;0.40;0.30;;;;;;;3.20;89.43;102499.88;5076786;28;20433;-70
2021/10/10 03:50:15;;;;;;;0.40;0.30;;;;;;;3.18;88.93;102499.25;5076472;28;20437;-69
2021/10/10 03:52:42;;;;;;;0.40;0.30;;;;;;;3.13;89.34;102492.88;5076578;28;20440;-69
2021/10/10 03:57:54;;;;;;;0.40;0.30;;;;;;;2.94;90.41;102481.09;5075623;28;20472;-69
2021/10/10 04:00:21;;;;;;;0.40;0.30;;;;;;;3.03;90.43;102485.25;5076337;28;20488;-69
2021/10/10 04:02:47;;;;;;;0.40;0.30;;;;;;;2.96;89.43;102487.06;5076322;28;20445;-69
2021/10/10 04:05:23;;;;;;;0.40;0.30;;;;;;;2.90;90.64;102485.22;5076102;28;20433;-69
2021/10/10 04:07:49;;;;;;;0.40;0.30;;;;;;;2.95;90.08;102478.22;5076284;28;20511;-69
2021/10/10 04:10:18;;;;;;;0.40;0.30;;;;;;;2.98;90.35;102477.00;5076111;28;20444;-69
2021/10/10 04:12:46;;;;;;;0.40;0.30;;;;;;;2.94;91.18;102478.44;5076130;28;20464;-69
2021/10/10 04:15:13;;;;;;;0.40;0.30;;;;;;;2.98;91.33;102477.00;5075539;28;20940;-69
2021/10/10 04:17:40;;;;;;;0.40;0.30;;;;;;;2.99;91.63;102484.00;5076101;28;20457;-69
2021/10/10 04:20:08;;;;;;;0.60;0.60;;;;;;;2.96;91.14;102476.38;5075931;28;20485;-69
2021/10/10 04:22:34;;;;;;;0.40;0.30;;;;;;;2.88;91.22;102482.75;5076155;28;20441;-69
2021/10/10 04:25:01;;;;;;;0.40;0.30;;;;;;;2.89;91.00;102478.22;5075891;28;20441;-69
2021/10/10 04:27:28;;;;;;;0.40;0.30;;;;;;;2.86;89.69;102492.00;5075710;28;20461;-69
2021/10/10 04:29:55;;;;;;;0.40;0.30;;;;;;;2.85;90.05;102490.34;5075734;28;20442;-69
2021/10/10 04:32:21;;;;;;;2.00;1.90;;;;;;;2.76;90.23;102479.84;5075287;28;20938;-69
2021/10/10 04:34:48;;;;;;;0.40;0.30;;;;;;;2.77;90.81;102481.47;5075700;28;20437;-69
2021/10/10 04:37:14;;;;;;;0.40;0.30;;;;;;;2.75;90.13;102480.03;5075521;28;20468;-69
2021/10/10 04:39:41;;;;;;;0.40;0.30;;;;;;;2.72;90.67;102489.28;5075385;28;20441;-69
2021/10/10 04:42:07;;;;;;;0.40;0.30;;;;;;;2.60;91.37;102482.88;5075615;28;20820;-69
2021/10/10 04:44:36;;;;;;;0.40;0.30;;;;;;;2.79;91.10;102481.28;5075499;28;20437;-70
2021/10/10 04:47:03;;;;;;;3.17;2.97;;;;;;;2.87;91.13;102481.09;5075397;28;20485;-70
2021/10/10 04:49:29;;;;;;;0.40;0.30;;;;;;;2.76;92.73;102479.00;5075439;28;20503;-70
2021/10/10 04:51:55;;;;;;;0.40;0.30;;;;;;;2.76;93.36;102484.38;5075046;28;20444;-70
2021/10/10 04:54:22;;;;;;;1.70;1.60;;;;;;;2.89;92.63;102480.91;5074748;28;20512;-70
2021/10/10 04:56:48;;;;;;;1.60;1.50;;;;;;;2.96;92.39;102485.22;5074973;28;20886;-69
2021/10/10 04:59:15;;;;;;;0.40;0.30;;;;;;;2.88;92.48;102477.41;5075174;28;20446;-70
2021/10/10 05:01:43;;;;;;;0.50;0.50;;;;;;;2.81;92.68;102481.09;5074856;28;21002;-70
2021/10/10 05:04:09;;;;;;;1.23;1.23;;;;;;;2.87;92.86;102474.91;5075176;28;20510;-70
2021/10/10 05:06:35;;;;;;;0.50;0.43;;;;;;;2.85;93.13;102475.13;5075030;28;20465;-70
2021/10/10 05:09:02;;;;;;;0.40;0.30;;;;;;;2.87;92.49;102469.56;5075048;28;20446;-70
2021/10/10 05:11:28;;;;;;;0.40;0.30;;;;;;;2.91;91.82;102484.19;5074958;28;20447;-70
2021/10/10 05:13:55;;;;;;;0.40;0.30;;;;;;;2.93;91.67;102471.44;5074666;28;20954;-70
2021/10/10 05:16:21;;;;;;;0.40;0.30;;;;;;;2.90;91.80;102469.16;5075855;28;20481;-69
2021/10/10 05:18:49;;;;;;;0.40;0.30;;;;;;;2.93;91.59;102460.72;5074739;28;20771;-70
2021/10/10 05:21:15;;;;;;;0.40;0.30;;;;;;;2.82;90.35;102466.66;5074711;28;20484;-70
2021/10/10 05:23:42;;;;;;;0.40;0.30;;;;;;;2.75;91.45;102467.50;5074449;28;20970;-71
2021/10/10 05:26:08;;;;;;;0.40;0.30;;;;;;;2.71;91.11;102468.91;5074595;28;20472;-70
2021/10/10 05:28:35;;;;;;;0.40;0.30;;;;;;;2.54;91.48;102464.94;5074711;28;20805;-69
2021/10/10 05:31:01;;;;;;;0.40;0.30;;;;;;;2.47;92.57;102464.09;5074582;28;20811;-69
2021/10/10 05:33:28;;;;;;;0.40;0.40;;;;;;;2.50;91.76;102466.38;5074525;28;20441;-69
2021/10/10 05:35:56;;;;;;;1.87;1.77;;;;;;;2.51;91.24;102470.69;5074376;28;20828;-69
2021/10/10 05:38:22;;;;;;;0.40;0.30;;;;;;;2.53;90.93;102469.47;5074132;28;20437;-69
2021/10/10 05:40:49;;;;;;;0.77;0.77;;;;;;;2.60;90.55;102469.50;5074638;28;20488;-69
2021/10/10 05:43:15;;;;;;;0.40;0.30;;;;;;;2.57;91.10;102467.25;5074286;28;20445;-69
2021/10/10 05:45:41;;;;;;;0.40;0.30;;;;;;;2.60;90.90;102469.50;5074261;28;20460;-69
2021/10/10 05:48:08;;;;;;;0.40;0.30;;;;;;;2.61;90.81;102465.81;5074255;28;20448;-69
2021/10/10 05:50:34;;;;;;;0.40;0.30;;;;;;;2.63;90.89;102469.09;5074224;28;20449;-69
2021/10/10 05:53:07;;;;;;;2.87;2.57;;;;;;;2.58;91.18;102468.88;5074174;28;20457;-69
2021/10/10 05:55:34;;;;;;;0.40;0.30;;;;;;;2.66;91.42;102470.56;5074154;28;20510;-69
2021/10/10 05:58:03;;;;;;;0.40;0.30;;;;;;;2.68;91.34;102468.50;5074073;28;20532;-69
2021/10/10 06:00:29;;;;;;;0.40;0.30;;;;;;;2.64;92.67;102469.91;5073957;28;20481;-69
2021/10/10 06:02:55;;;;;;;0.40;0.30;;;;;;;2.66;93.11;102468.69;5073989;28;20449;-69
2021/10/10 06:05:22;;;;;;;0.40;0.30;;;;;;;2.64;93.83;102470.75;5073783;28;20449;-69
2021/10/10 06:07:48;;;;;;;0.40;0.30;;;;;;;2.61;95.18;102476.50;5073909;28;20441;-69
2021/10/10 06:10:16;;;;;;;0.40;0.30;;;;;;;2.68;95.02;102463.13;5073829;28;20449;-69
2021/10/10 06:12:43;;;;;;;0.40;0.30;;;;;;;2.87;94.40;102470.38;5073838;28;20465;-69
2021/10/10 06:15:10;;;;;;;0.77;0.77;;;;;;;2.87;94.53;102466.88;5073265;28;20954;-69
2021/10/10 06:17:37;;;;;;;0.60;0.60;;;;;;;2.84;94.85;102467.31;5073431;28;20930;-69
2021/10/10 06:20:05;;;;;;;0.40;0.30;;;;;;;2.95;94.49;102466.69;5073699;28;20441;-68
2021/10/10 06:22:31;;;;;;;4.43;4.13;;;;;;;3.02;94.38;102468.34;5073532;28;20496;-69
2021/10/10 06:24:58;;;;;;;0.40;0.30;;;;;;;3.01;95.26;102463.19;5073589;28;20502;-69
2021/10/10 06:27:26;;;;;;;0.40;0.30;;;;;;;3.15;94.89;102461.38;5073164;28;20465;-69
2021/10/10 06:29:52;;;;;;;0.40;0.30;;;;;;;3.17;95.44;102464.66;5073195;28;20847;-69
2021/10/10 06:32:18;;;;;;;2.50;2.30;;;;;;;3.20;94.58;102470.44;5073432;28;20437;-69
2021/10/10 06:34:45;;;;;;;0.40;0.30;;;;;;;3.20;94.18;102470.44;5073468;28;20448;-68
2021/10/10 06:37:11;;;;;;;0.40;0.30;;;;;;;3.25;94.93;102467.13;5073351;28;20468;-69
2021/10/10 06:39:38;;;;;;;0.40;0.30;;;;;;;3.26;95.66;102474.97;5073385;28;20449;-69
2021/10/10 06:42:06;;;;;;;0.40;0.30;;;;;;;3.25;96.97;102472.50;5073282;28;20489;-69
2021/10/10 06:44:34;;;;;;;2.10;2.00;;;;;;;3.40;96.96;102477.63;5073317;28;20449;-69
2021/10/10 06:47:01;;;;;;;4.10;3.70;;;;;;;3.51;96.87;102487.75;5072968;28;20493;-69
2021/10/10 06:49:27;;;;;;;0.40;0.30;;;;;;;3.62;96.70;102476.38;5073214;28;20448;-70
2021/10/10 06:51:54;;;;;;;0.40;0.30;;;;;;;3.65;97.49;102467.94;5073287;28;20483;-68
2021/10/10 06:54:20;;;;;;;0.40;0.30;;;;;;;3.72;97.18;102474.13;5073197;28;20444;-69
2021/10/10 06:56:47;;;;;;;0.40;0.30;;;;;;;3.86;97.99;102480.28;5073164;28;20469;-69
2021/10/10 06:59:13;;;;;;;3.80;3.60;;;;;;;3.97;98.38;102470.75;5072844;28;20950;-69
2021/10/10 07:01:41;;;;;;;0.40;0.30;;;;;;;4.15;97.59;102480.81;5073173;28;20488;-69
2021/10/10 07:04:07;;;;;;;0.40;0.30;;;;;;;4.30;97.22;102479.53;5073148;28;20491;-69
2021/10/10 07:06:34;;;;;;;0.40;0.30;;;;;;;4.45;97.24;102475.75;5073075;28;20465;-68
2021/10/10 07:09:00;;;;;;;0.40;0.30;;;;;;;4.58;96.77;102472.19;5073158;28;20487;-68
2021/10/10 07:11:27;;;;;;;0.50;0.50;;;;;;;4.71;98.49;102478.31;5073107;28;20441;-69
2021/10/10 07:13:53;;;;;;;0.40;0.30;;;;;;;4.88;99.29;102481.31;5072770;28;20935;-69
2021/10/10 07:16:26;;;;;;;0.40;0.30;;;;;;;5.05;100.00;102477.09;5074362;28;20480;-68
2021/10/10 07:18:55;;;;;;;1.93;1.83;;;;;;;5.27;100.00;102479.41;5077490;28;20433;-68
2021/10/10 07:21:27;;;;;;;0.40;0.30;;;;;;;5.48;100.00;102478.19;5077028;28;20512;-68
2021/10/10 07:24:52;;;;;;;0.40;0.30;;;;;;;5.67;100.00;102485.28;5077122;28;20426;-69
2021/10/10 07:26:53;;;;;;;0.70;0.67;;;;;;;5.88;100.00;102483.19;5076572;28;20445;-69
2021/10/10 07:29:20;;;;;;;0.40;0.30;;;;;;;6.01;99.26;102472.31;5076597;28;20438;-68
2021/10/10 07:31:47;;;;;;;0.40;0.30;;;;;;;6.15;98.40;102476.50;5076881;28;20436;-69
2021/10/10 07:34:15;;;;;;;0.40;0.30;;;;;;;6.33;97.60;102475.69;5076873;28;20433;-69
2021/10/10 07:36:41;;;;;;;2.70;1.50;;;;;;;6.49;96.40;102479.63;5076835;28;20468;-69
2021/10/10 07:39:07;;;;;;;0.40;0.30;;;;;;;6.68;95.02;102480.41;5076818;28;20444;-69
2021/10/10 07:41:36;;;;;;;0.40;0.30;;;;;;;6.78;93.66;102478.00;5076670;28;20485;-69
2021/10/10 07:44:05;;;;;;;0.57;0.57;;;;;;;6.88;91.68;102478.28;5076718;28;20556;-69
2021/10/10 07:46:36;;;;;;;0.40;0.30;;;;;;;6.94;89.13;102476.53;5076626;28;20472;-69
2021/10/10 07:49:03;;;;;;;0.63;0.63;;;;;;;7.03;88.14;102475.97;5076637;28;20426;-69
2021/10/10 07:51:31;;;;;;;11.77;4.33;;;;;;;7.18;87.42;102478.25;5076528;28;20478;-69
2021/10/10 07:53:58;;;;;;;0.40;0.30;;;;;;;7.29;86.17;102474.72;5076479;28;20452;-70
2021/10/10 07:56:24;;;;;;;0.40;0.30;;;;;;;7.42;85.72;102484.47;5076428;28;20460;-69
2021/10/10 07:58:51;;;;;;;0.40;0.30;;;;;;;7.51;84.89;102476.88;5076393;28;20861;-68
2021/10/10 08:01:17;;;;;;;0.40;0.30;;;;;;;7.57;84.66;102486.75;5075930;28;21001;-70
2021/10/10 08:03:43;;;;;;;0.40;0.30;;;;;;;7.70;84.08;102486.50;5076297;28;20437;-70
2021/10/10 08:06:10;;;;;;;0.40;0.20;;;;;;;7.80;83.45;102486.72;5076195;28;20465;-70
2021/10/10 08:08:38;;;;;;;0.40;0.30;;;;;;;7.92;82.60;102485.88;5075896;28;20867;-70
2021/10/10 08:11:04;;;;;;;1.47;1.40;;;;;;;8.08;82.32;102490.56;5075851;28;20445;-70
2021/10/10 08:13:31;;;;;;;0.40;0.30;;;;;;;8.18;82.69;102493.47;5076100;28;20804;-69
2021/10/10 08:15:57;;;;;;;0.40;0.30;;;;;;;8.31;81.86;102481.59;5075828;28;20492;-69
2021/10/10 08:18:24;;;;;;;0.40;0.30;;;;;;;8.49;80.78;102483.34;5075999;28;20449;-70
2021/10/10 08:20:50;;;;;;;0.43;0.33;;;;;;;8.64;80.04;102485.53;5075936;28;20490;-69
2021/10/10 08:23:17;;;;;;;0.40;0.30;;;;;;;8.71;79.06;102487.00;5075922;28;20448;-70
2021/10/10 08:25:45;;;;;;;0.50;0.30;;;;;;;8.79;78.04;102478.53;5075847;28;20468;-69
2021/10/10 08:28:11;;;;;;;0.40;0.30;;;;;;;8.92;77.79;102485.50;5074509;28;20448;-70
2021/10/10 08:30:38;;;;;;;1.20;1.13;;;;;;;9.01;77.51;102477.81;5075770;28;20528;-71
2021/10/10 08:33:05;;;;;;;0.40;0.30;;;;;;;9.04;77.65;102480.06;5075506;28;20440;-70
2021/10/10 08:35:32;;;;;;;0.40;0.30;;;;;;;9.04;76.78;102475.47;5075429;28;20453;-70
2021/10/10 08:37:58;;;;;;;0.40;0.30;;;;;;;9.09;77.15;102477.44;5075774;28;20812;-70
2021/10/10 08:40:24;;;;;;;0.40;0.30;;;;;;;9.10;75.25;102468.25;5075281;28;20947;-69
2021/10/10 08:43:01;;;;;;;0.40;0.30;;;;;;;9.20;75.30;102471.13;5075512;28;20477;-70
2021/10/10 08:45:30;;;;;;;0.40;0.30;;;;;;;9.33;74.58;102468.09;5075488;28;20501;-70
2021/10/10 08:47:57;;;;;;;0.40;0.30;;;;;;;9.34;72.91;102474.31;5075566;28;20502;-70
2021/10/10 08:50:26;;;;;;;0.40;0.30;;;;;;;9.41;72.81;102468.75;5075554;28;20456;-70
2021/10/10 08:52:56;;;;;;;1.00;0.90;;;;;;;9.44;72.29;102463.69;5075406;28;20453;-70
2021/10/10 08:55:23;;;;;;;0.40;0.30;;;;;;;9.55;72.14;102459.22;5075309;28;20428;-71
2021/10/10 08:57:51;;;;;;;0.40;0.30;;;;;;;9.62;71.87;102459.88;5074791;28;20907;-70
2021/10/10 09:00:21;;;;;;;0.40;0.30;;;;;;;9.72;71.78;102460.03;5074945;28;20433;-69
2021/10/10 09:02:48;;;;;;;0.40;0.20;;;;;;;9.86;69.62;102455.06;5075174;28;20534;-69
2021/10/10 09:05:16;;;;;;;0.40;0.30;;;;;;;9.96;69.74;102459.81;5074727;28;20449;-69
2021/10/10 09:07:44;;;;;;;2.03;1.43;;;;;;;10.03;69.71;102455.03;5074483;28;20452;-67
2021/10/10 09:10:19;;;;;;;0.40;0.30;;;;;;;10.09;68.90;102459.44;5074722;28;20446;-67
2021/10/10 09:12:46;;;;;;;0.40;0.30;;;;;;;10.13;68.97;102455.16;5075003;28;20441;-67
2021/10/10 09:15:17;;;;;;;0.40;0.30;;;;;;;10.23;68.73;102449.06;5074813;28;20460;-68
2021/10/10 09:17:54;;;;;;;3.13;2.83;;;;;;;10.31;68.10;102441.34;5074858;28;20483;-67
2021/10/10 09:20:30;;;;;;;0.40;0.30;;;;;;;10.39;67.37;102441.97;5074911;28;20456;-67
2021/10/10 09:22:57;;;;;;;0.40;0.30;;;;;;;10.49;66.62;102444.75;5074781;28;20476;-68
2021/10/10 09:25:24;;;;;;;0.40;0.30;;;;;;;10.59;66.19;102442.19;5074413;28;20815;-68
2021/10/10 09:27:50;;;;;;;0.40;0.30;;;;;;;10.67;64.63;102441.72;5074745;28;20449;-67
2021/10/10 09:30:20;;;;;;;2.30;2.20;;;;;;;10.78;64.53;102440.75;5074289;28;20949;-68
2021/10/10 09:32:47;;;;;;;0.50;0.40;;;;;;;10.96;61.73;102444.16;5074613;28;20437;-67
2021/10/10 09:35:27;;;;;;;0.40;0.30;;;;;;;11.10;59.70;102442.66;5074242;28;20888;-68
2021/10/10 09:38:05;;;;;;;0.40;0.30;;;;;;;11.23;60.00;102447.63;5074228;28;20895;-67
2021/10/10 09:40:33;;;;;;;4.30;4.00;;;;;;;11.24;57.89;102441.13;5074240;28;20474;-68
2021/10/10 09:43:02;;;;;;;11.00;4.83;;;;;;;11.32;58.58;102451.50;5074602;28;20487;-68
2021/10/10 09:45:30;;;;;;;0.40;0.30;;;;;;;11.36;59.39;102449.91;5074136;28;20557;-67
2021/10/10 09:48:00;;;;;;;0.40;0.30;;;;;;;11.46;58.56;102442.91;5074410;28;20441;-68
2021/10/10 09:50:30;;;;;;;2.30;1.70;;;;;;;11.61;55.75;102443.03;5074293;28;20507;-68
2021/10/10 09:53:01;;;;;;;0.40;0.30;;;;;;;11.69;56.46;102437.13;5074221;28;20473;-68
2021/10/10 09:55:29;;;;;;;0.40;0.30;;;;;;;11.84;53.05;102439.94;5074177;28;20468;-68
2021/10/10 09:57:55;;;;;;;0.40;0.30;;;;;;;11.99;53.31;102443.78;5074167;28;20441;-68
2021/10/10 10:00:23;;;;;;;0.40;0.30;;;;;;;12.04;53.87;102438.38;5074067;28;20445;-68
2021/10/10 10:02:51;;;;;;;0.40;0.27;;;;;;;12.18;52.61;102445.00;5074022;28;20481;-67
2021/10/10 10:05:26;;;;;;;1.47;1.17;;;;;;;12.22;53.44;102448.81;5073524;28;20969;-68
2021/10/10 10:07:55;;;;;;;0.77;0.77;;;;;;;12.04;53.19;102435.66;5073958;28;20440;-68
2021/10/10 10:10:23;;;;;;;0.40;0.30;;;;;;;12.05;53.83;102437.31;5074004;28;20445;-68
2021/10/10 10:12:51;;;;;;;0.40;0.30;;;;;;;12.10;54.34;102434.63;5073906;28;20448;-68
2021/10/10 10:15:19;;;;;;;0.40;0.30;;;;;;;12.30;52.62;102444.75;5073551;28;20819;-68
2021/10/10 10:17:46;;;;;;;0.40;0.30;;;;;;;12.44;52.33;102431.47;5073475;28;20922;-68
2021/10/10 10:20:15;;;;;;;0.40;0.30;;;;;;;12.58;49.47;102430.69;5073678;28;20449;-69
2021/10/10 10:22:42;;;;;;;0.40;0.30;;;;;;;12.67;49.98;102428.28;5073673;28;20484;-68
2021/10/10 10:25:10;;;;;;;0.40;0.30;;;;;;;12.83;48.13;102424.47;5073231;28;20962;-68
2021/10/10 10:27:37;;;;;;;0.40;0.30;;;;;;;12.90;50.03;102417.97;5073552;28;20494;-68
2021/10/10 10:30:05;;;;;;;0.40;0.30;;;;;;;13.04;48.88;102421.75;5073583;28;20452;-68
2021/10/10 10:32:33;;;;;;;0.40;0.30;;;;;;;13.07;50.08;102427.47;5073209;28;20444;-68
2021/10/10 10:35:01;;;;;;;0.40;0.30;;;;;;;13.05;50.14;102418.75;5073495;28;20446;-68
2021/10/10 10:37:53;;;;;;;0.40;0.20;;;;;;;13.29;47.64;102429.13;5073472;28;20465;-68
2021/10/10 10:40:40;;;;;;;0.40;0.30;;;;;;;13.44;49.00;102420.94;5073147;28;21017;-68
2021/10/10 10:43:12;;;;;;;0.40;0.30;;;;;;;13.56;47.30;102423.38;5073298;28;20480;-68
2021/10/10 10:45:41;;;;;;;5.37;4.90;;;;;;;13.70;46.19;102429.88;5073361;28;20540;-68
2021/10/10 10:48:09;;;;;;;0.40;0.30;;;;;;;13.79;48.13;102422.75;5073026;28;20433;-68
2021/10/10 10:50:39;;;;;;;0.40;0.30;;;;;;;13.91;47.31;102418.91;5072584;28;20430;-68
2021/10/10 10:53:08;;;;;;;0.40;0.30;;;;;;;14.06;46.12;102411.47;5072953;28;20861;-68
2021/10/10 10:55:36;;;;;;;0.40;0.30;;;;;;;14.17;47.43;102414.19;5073154;28;20472;-68
2021/10/10 10:58:10;;;;;;;0.40;0.30;;;;;;;14.20;46.19;102403.50;5073429;28;20480;-68
2021/10/10 11:00:40;;;;;;;0.40;0.30;;;;;;;14.26;47.67;102412.50;5072902;28;20425;-68
2021/10/10 11:03:18;;;;;;;0.40;0.20;;;;;;;14.55;47.86;102407.16;5073100;28;20488;-68
2021/10/10 11:05:47;;;;;;;0.40;0.30;;;;;;;15.17;45.29;102399.31;5072760;28;20551;-68
2021/10/10 11:08:45;;;;;;;0.40;0.30;;;;;;;16.27;43.53;102412.00;5073097;28;20437;-69
2021/10/10 11:11:16;;;;;;;1.17;1.17;;;;;;;17.25;41.17;102406.63;5031010;28;20432;-68
2021/10/10 11:13:47;;;;;;;0.40;0.30;;;;;;;18.20;41.05;102404.25;5064639;28;20462;-68
2021/10/10 11:16:15;;;;;;;0.40;0.30;;;;;;;19.24;38.92;102404.22;5073589;28;20579;-68
2021/10/10 11:18:44;;;;;;;0.40;0.30;;;;;;;19.91;37.74;102399.34;5072967;28;20442;-68
2021/10/10 11:21:13;;;;;;;0.40;0.27;;;;;;;20.74;36.30;102401.22;5072694;28;20939;-68
2021/10/10 11:23:40;;;;;;;0.40;0.27;;;;;;;20.95;36.21;102406.06;5072953;28;20842;-68
2021/10/10 11:26:08;;;;;;;0.40;0.30;;;;;;;21.77;34.44;102404.00;5072944;28;20453;-68
2021/10/10 11:28:37;;;;;;;0.40;0.30;;;;;;;21.84;32.94;102399.56;5073157;28;20437;-69
2021/10/10 11:31:09;;;;;;;0.40;0.20;;;;;;;22.42;33.66;102397.88;5072890;28;20468;-69
2021/10/10 11:33:37;;;;;;;0.40;0.30;;;;;;;23.01;32.67;102385.81;5072890;28;20437;-69
2021/10/10 11:36:04;;;;;;;0.40;0.30;;;;;;;23.66;31.72;102391.56;5072792;28;20457;-69
2021/10/10 11:38:46;;;;;;;0.40;0.27;;;;;;;23.87;31.66;102389.47;5072771;28;20446;-69